sensor_id;sensor_type;location;lat;lon;timestamp;P1;durP1;ratioP1;P2;durP2;ratioP2
25657;SDS011;13517;59.320;18.042;2022-08-25T00:00:43;7.95;;;2.85;;
25657;SDS011;13517;59.320;18.042;2022-08-25T00:03:10;4.85;;;2.97;;
25657;SDS011;13517;59.320;18.042;2022-08-25T00:05:36;6.05;;;2.75;;
25657;SDS011;13517;59.320;18.042;2022-08-25T00:08:01;8.70;;;2.95;;
25657;SDS011;13517;59.320;18.042;2022-08-25T00:10:30;8.52;;;2.97;;
25657;SDS011;13517;59.320;18.042;2022-08-25T00:12:55;8.75;;;3.15;;
25657;SDS011;13517;59.320;18.042;2022-08-25T00:15:21;6.40;;;2.88;;
25657;SDS011;13517;59.320;18.042;2022-08-25T00:17:47;4.95;;;2.85;;
25657;SDS011;13517;59.320;18.042;2022-08-25T00:20:13;6.78;;;2.97;;
25657;SDS011;13517;59.320;18.042;2022-08-25T00:22:39;6.25;;;3.10;;
25657;SDS011;13517;59.320;18.042;2022-08-25T00:25:05;9.23;;;3.33;;
25657;SDS011;13517;59.320;18.042;2022-08-25T00:27:31;7.70;;;3.05;;
25657;SDS011;13517;59.320;18.042;2022-08-25T00:29:57;17.13;;;3.17;;
25657;SDS011;13517;59.320;18.042;2022-08-25T00:32:22;8.52;;;3.75;;
25657;SDS011;13517;59.320;18.042;2022-08-25T00:34:49;6.60;;;3.38;;
25657;SDS011;13517;59.320;18.042;2022-08-25T00:37:15;7.18;;;3.38;;
25657;SDS011;13517;59.320;18.042;2022-08-25T00:39:40;9.00;;;3.50;;
25657;SDS011;13517;59.320;18.042;2022-08-25T00:42:07;27.80;;;3.42;;
25657;SDS011;13517;59.320;18.042;2022-08-25T00:44:33;5.80;;;3.22;;
25657;SDS011;13517;59.320;18.042;2022-08-25T00:47:00;6.60;;;3.63;;
25657;SDS011;13517;59.320;18.042;2022-08-25T00:49:29;7.50;;;3.47;;
25657;SDS011;13517;59.320;18.042;2022-08-25T00:52:06;5.28;;;3.38;;
25657;SDS011;13517;59.320;18.042;2022-08-25T00:54:41;8.15;;;3.55;;
25657;SDS011;13517;59.320;18.042;2022-08-25T00:57:25;14.57;;;3.50;;
25657;SDS011;13517;59.320;18.042;2022-08-25T00:59:53;6.55;;;3.30;;
25657;SDS011;13517;59.320;18.042;2022-08-25T01:02:19;4.55;;;3.40;;
25657;SDS011;13517;59.320;18.042;2022-08-25T01:04:45;7.60;;;3.28;;
25657;SDS011;13517;59.320;18.042;2022-08-25T01:07:11;7.38;;;3.50;;
25657;SDS011;13517;59.320;18.042;2022-08-25T01:09:38;6.85;;;3.63;;
25657;SDS011;13517;59.320;18.042;2022-08-25T01:12:04;4.70;;;3.40;;
25657;SDS011;13517;59.320;18.042;2022-08-25T01:14:30;8.45;;;4.13;;
25657;SDS011;13517;59.320;18.042;2022-08-25T01:16:56;6.47;;;4.05;;
25657;SDS011;13517;59.320;18.042;2022-08-25T01:19:23;8.32;;;3.78;;
25657;SDS011;13517;59.320;18.042;2022-08-25T01:21:50;6.10;;;3.60;;
25657;SDS011;13517;59.320;18.042;2022-08-25T01:24:20;4.93;;;3.88;;
25657;SDS011;13517;59.320;18.042;2022-08-25T01:26:48;5.32;;;3.67;;
25657;SDS011;13517;59.320;18.042;2022-08-25T01:29:13;6.60;;;3.72;;
25657;SDS011;13517;59.320;18.042;2022-08-25T01:31:45;13.02;;;3.28;;
25657;SDS011;13517;59.320;18.042;2022-08-25T01:34:12;8.00;;;4.00;;
25657;SDS011;13517;59.320;18.042;2022-08-25T01:36:38;6.13;;;4.07;;
25657;SDS011;13517;59.320;18.042;2022-08-25T01:39:05;8.13;;;4.85;;
25657;SDS011;13517;59.320;18.042;2022-08-25T01:44:22;8.35;;;5.20;;
25657;SDS011;13517;59.320;18.042;2022-08-25T01:46:50;8.55;;;4.72;;
25657;SDS011;13517;59.320;18.042;2022-08-25T01:49:16;8.98;;;4.70;;
25657;SDS011;13517;59.320;18.042;2022-08-25T01:51:43;9.57;;;5.32;;
25657;SDS011;13517;59.320;18.042;2022-08-25T01:54:13;6.75;;;4.80;;
25657;SDS011;13517;59.320;18.042;2022-08-25T01:56:38;10.55;;;5.18;;
25657;SDS011;13517;59.320;18.042;2022-08-25T01:59:04;11.05;;;4.78;;
25657;SDS011;13517;59.320;18.042;2022-08-25T02:01:29;6.90;;;4.57;;
25657;SDS011;13517;59.320;18.042;2022-08-25T02:03:55;10.90;;;4.68;;
25657;SDS011;13517;59.320;18.042;2022-08-25T02:06:32;12.75;;;5.10;;
25657;SDS011;13517;59.320;18.042;2022-08-25T02:09:09;10.02;;;4.88;;
25657;SDS011;13517;59.320;18.042;2022-08-25T02:11:38;6.22;;;4.13;;
25657;SDS011;13517;59.320;18.042;2022-08-25T02:14:06;11.00;;;4.68;;
25657;SDS011;13517;59.320;18.042;2022-08-25T02:16:34;10.38;;;5.00;;
25657;SDS011;13517;59.320;18.042;2022-08-25T02:19:01;6.03;;;4.30;;
25657;SDS011;13517;59.320;18.042;2022-08-25T02:21:28;7.30;;;4.70;;
25657;SDS011;13517;59.320;18.042;2022-08-25T02:23:54;9.75;;;5.22;;
25657;SDS011;13517;59.320;18.042;2022-08-25T02:26:20;9.55;;;5.18;;
25657;SDS011;13517;59.320;18.042;2022-08-25T02:28:46;15.63;;;5.63;;
25657;SDS011;13517;59.320;18.042;2022-08-25T02:31:14;8.40;;;5.25;;
25657;SDS011;13517;59.320;18.042;2022-08-25T02:33:41;7.50;;;4.88;;
25657;SDS011;13517;59.320;18.042;2022-08-25T02:36:07;10.20;;;4.75;;
25657;SDS011;13517;59.320;18.042;2022-08-25T02:38:33;10.15;;;4.38;;
25657;SDS011;13517;59.320;18.042;2022-08-25T02:41:00;11.25;;;4.65;;
25657;SDS011;13517;59.320;18.042;2022-08-25T02:43:32;12.75;;;6.15;;
25657;SDS011;13517;59.320;18.042;2022-08-25T02:45:58;9.43;;;4.95;;
25657;SDS011;13517;59.320;18.042;2022-08-25T02:48:23;8.65;;;5.30;;
25657;SDS011;13517;59.320;18.042;2022-08-25T02:50:49;8.60;;;4.93;;
25657;SDS011;13517;59.320;18.042;2022-08-25T02:53:17;17.08;;;6.57;;
25657;SDS011;13517;59.320;18.042;2022-08-25T02:55:43;8.00;;;4.63;;
25657;SDS011;13517;59.320;18.042;2022-08-25T02:58:09;11.35;;;4.80;;
25657;SDS011;13517;59.320;18.042;2022-08-25T03:00:34;9.05;;;4.53;;
25657;SDS011;13517;59.320;18.042;2022-08-25T03:03:00;10.75;;;4.90;;
25657;SDS011;13517;59.320;18.042;2022-08-25T03:05:26;6.97;;;4.63;;
25657;SDS011;13517;59.320;18.042;2022-08-25T03:07:51;9.20;;;4.18;;
25657;SDS011;13517;59.320;18.042;2022-08-25T03:10:17;8.90;;;4.20;;
25657;SDS011;13517;59.320;18.042;2022-08-25T03:12:44;9.57;;;4.15;;
25657;SDS011;13517;59.320;18.042;2022-08-25T03:15:11;7.07;;;4.20;;
25657;SDS011;13517;59.320;18.042;2022-08-25T03:17:40;10.52;;;4.22;;
25657;SDS011;13517;59.320;18.042;2022-08-25T03:20:07;6.68;;;3.92;;
25657;SDS011;13517;59.320;18.042;2022-08-25T03:22:33;7.22;;;3.72;;
25657;SDS011;13517;59.320;18.042;2022-08-25T03:24:59;6.07;;;4.25;;
25657;SDS011;13517;59.320;18.042;2022-08-25T03:27:43;8.07;;;3.70;;
25657;SDS011;13517;59.320;18.042;2022-08-25T03:30:09;3.90;;;3.25;;
25657;SDS011;13517;59.320;18.042;2022-08-25T03:32:35;5.65;;;3.38;;
25657;SDS011;13517;59.320;18.042;2022-08-25T03:35:01;4.95;;;3.65;;
25657;SDS011;13517;59.320;18.042;2022-08-25T03:37:27;7.60;;;3.55;;
25657;SDS011;13517;59.320;18.042;2022-08-25T03:39:52;6.95;;;3.50;;
25657;SDS011;13517;59.320;18.042;2022-08-25T03:42:17;9.55;;;3.67;;
25657;SDS011;13517;59.320;18.042;2022-08-25T03:44:43;6.30;;;3.63;;
25657;SDS011;13517;59.320;18.042;2022-08-25T03:47:09;5.75;;;3.72;;
25657;SDS011;13517;59.320;18.042;2022-08-25T03:49:34;4.18;;;3.42;;
25657;SDS011;13517;59.320;18.042;2022-08-25T03:52:00;6.15;;;3.45;;
25657;SDS011;13517;59.320;18.042;2022-08-25T03:54:26;8.60;;;3.53;;
25657;SDS011;13517;59.320;18.042;2022-08-25T03:56:51;4.55;;;3.38;;
25657;SDS011;13517;59.320;18.042;2022-08-25T03:59:17;4.72;;;3.33;;
25657;SDS011;13517;59.320;18.042;2022-08-25T04:01:42;10.52;;;3.42;;
25657;SDS011;13517;59.320;18.042;2022-08-25T04:04:10;4.90;;;3.78;;
25657;SDS011;13517;59.320;18.042;2022-08-25T04:06:38;7.53;;;3.10;;
25657;SDS011;13517;59.320;18.042;2022-08-25T04:09:04;3.63;;;2.85;;
25657;SDS011;13517;59.320;18.042;2022-08-25T04:11:30;6.00;;;3.03;;
25657;SDS011;13517;59.320;18.042;2022-08-25T04:13:56;6.03;;;3.60;;
25657;SDS011;13517;59.320;18.042;2022-08-25T04:16:26;3.70;;;2.95;;
25657;SDS011;13517;59.320;18.042;2022-08-25T04:18:54;6.65;;;3.28;;
25657;SDS011;13517;59.320;18.042;2022-08-25T04:21:20;8.48;;;3.78;;
25657;SDS011;13517;59.320;18.042;2022-08-25T04:23:47;6.55;;;3.28;;
25657;SDS011;13517;59.320;18.042;2022-08-25T04:28:59;4.97;;;2.60;;
25657;SDS011;13517;59.320;18.042;2022-08-25T04:31:27;3.25;;;2.60;;
25657;SDS011;13517;59.320;18.042;2022-08-25T04:33:53;5.03;;;2.88;;
25657;SDS011;13517;59.320;18.042;2022-08-25T04:36:19;13.98;;;2.88;;
25657;SDS011;13517;59.320;18.042;2022-08-25T04:38:46;5.28;;;2.67;;
25657;SDS011;13517;59.320;18.042;2022-08-25T04:41:12;3.20;;;2.53;;
25657;SDS011;13517;59.320;18.042;2022-08-25T04:43:40;6.22;;;2.60;;
25657;SDS011;13517;59.320;18.042;2022-08-25T04:46:11;5.55;;;2.65;;
25657;SDS011;13517;59.320;18.042;2022-08-25T04:48:41;4.20;;;2.05;;
25657;SDS011;13517;59.320;18.042;2022-08-25T04:51:15;4.45;;;2.00;;
25657;SDS011;13517;59.320;18.042;2022-08-25T04:53:42;4.38;;;2.50;;
25657;SDS011;13517;59.320;18.042;2022-08-25T04:56:08;2.88;;;2.08;;
25657;SDS011;13517;59.320;18.042;2022-08-25T04:58:36;5.75;;;2.40;;
25657;SDS011;13517;59.320;18.042;2022-08-25T05:01:07;4.10;;;3.03;;
25657;SDS011;13517;59.320;18.042;2022-08-25T05:03:34;8.18;;;2.70;;
25657;SDS011;13517;59.320;18.042;2022-08-25T05:06:00;4.60;;;2.30;;
25657;SDS011;13517;59.320;18.042;2022-08-25T05:08:27;5.63;;;2.35;;
25657;SDS011;13517;59.320;18.042;2022-08-25T05:10:52;6.95;;;2.38;;
25657;SDS011;13517;59.320;18.042;2022-08-25T05:13:19;2.85;;;1.55;;
25657;SDS011;13517;59.320;18.042;2022-08-25T05:15:55;3.55;;;1.77;;
25657;SDS011;13517;59.320;18.042;2022-08-25T05:18:23;2.15;;;1.60;;
25657;SDS011;13517;59.320;18.042;2022-08-25T05:20:50;3.72;;;2.10;;
25657;SDS011;13517;59.320;18.042;2022-08-25T05:23:21;3.13;;;1.85;;
25657;SDS011;13517;59.320;18.042;2022-08-25T05:25:47;5.80;;;1.88;;
25657;SDS011;13517;59.320;18.042;2022-08-25T05:28:13;4.38;;;1.98;;
25657;SDS011;13517;59.320;18.042;2022-08-25T05:30:39;2.83;;;1.95;;
25657;SDS011;13517;59.320;18.042;2022-08-25T05:33:07;2.67;;;1.88;;
25657;SDS011;13517;59.320;18.042;2022-08-25T05:35:33;4.20;;;1.70;;
25657;SDS011;13517;59.320;18.042;2022-08-25T05:38:00;3.28;;;1.80;;
25657;SDS011;13517;59.320;18.042;2022-08-25T05:40:26;6.57;;;1.80;;
25657;SDS011;13517;59.320;18.042;2022-08-25T05:42:52;3.45;;;1.80;;
25657;SDS011;13517;59.320;18.042;2022-08-25T05:45:18;5.28;;;1.90;;
25657;SDS011;13517;59.320;18.042;2022-08-25T05:47:44;2.97;;;1.85;;
25657;SDS011;13517;59.320;18.042;2022-08-25T05:50:09;4.68;;;2.03;;
25657;SDS011;13517;59.320;18.042;2022-08-25T05:52:35;7.38;;;2.10;;
25657;SDS011;13517;59.320;18.042;2022-08-25T05:55:01;6.57;;;2.22;;
25657;SDS011;13517;59.320;18.042;2022-08-25T05:57:26;6.55;;;2.05;;
25657;SDS011;13517;59.320;18.042;2022-08-25T05:59:51;2.90;;;1.90;;
25657;SDS011;13517;59.320;18.042;2022-08-25T06:02:17;5.25;;;1.77;;
25657;SDS011;13517;59.320;18.042;2022-08-25T06:05:01;7.80;;;1.92;;
25657;SDS011;13517;59.320;18.042;2022-08-25T06:07:27;3.50;;;1.80;;
25657;SDS011;13517;59.320;18.042;2022-08-25T06:09:52;4.63;;;1.73;;
25657;SDS011;13517;59.320;18.042;2022-08-25T06:12:17;2.53;;;1.58;;
25657;SDS011;13517;59.320;18.042;2022-08-25T06:14:45;6.18;;;1.80;;
25657;SDS011;13517;59.320;18.042;2022-08-25T06:17:10;5.60;;;2.10;;
25657;SDS011;13517;59.320;18.042;2022-08-25T06:19:36;6.72;;;2.00;;
25657;SDS011;13517;59.320;18.042;2022-08-25T06:22:01;4.43;;;1.65;;
25657;SDS011;13517;59.320;18.042;2022-08-25T06:24:27;5.75;;;1.90;;
25657;SDS011;13517;59.320;18.042;2022-08-25T06:26:53;6.10;;;2.10;;
25657;SDS011;13517;59.320;18.042;2022-08-25T06:29:19;4.93;;;1.70;;
25657;SDS011;13517;59.320;18.042;2022-08-25T06:31:45;4.20;;;1.98;;
25657;SDS011;13517;59.320;18.042;2022-08-25T06:34:11;3.33;;;1.83;;
25657;SDS011;13517;59.320;18.042;2022-08-25T06:36:37;5.72;;;2.03;;
25657;SDS011;13517;59.320;18.042;2022-08-25T06:39:03;5.53;;;2.00;;
25657;SDS011;13517;59.320;18.042;2022-08-25T06:41:29;2.88;;;1.85;;
25657;SDS011;13517;59.320;18.042;2022-08-25T06:43:54;5.63;;;2.10;;
25657;SDS011;13517;59.320;18.042;2022-08-25T06:46:21;4.22;;;2.15;;
25657;SDS011;13517;59.320;18.042;2022-08-25T06:48:50;3.90;;;1.90;;
25657;SDS011;13517;59.320;18.042;2022-08-25T06:51:17;5.57;;;1.77;;
25657;SDS011;13517;59.320;18.042;2022-08-25T06:53:45;4.93;;;2.17;;
25657;SDS011;13517;59.320;18.042;2022-08-25T06:56:13;6.75;;;1.92;;
25657;SDS011;13517;59.320;18.042;2022-08-25T06:58:40;2.20;;;1.60;;
25657;SDS011;13517;59.320;18.042;2022-08-25T07:01:16;5.32;;;1.73;;
25657;SDS011;13517;59.320;18.042;2022-08-25T07:03:50;7.03;;;1.98;;
25657;SDS011;13517;59.320;18.042;2022-08-25T07:06:18;4.97;;;2.20;;
25657;SDS011;13517;59.320;18.042;2022-08-25T07:08:44;5.80;;;2.00;;
25657;SDS011;13517;59.320;18.042;2022-08-25T07:11:10;5.88;;;1.70;;
25657;SDS011;13517;59.320;18.042;2022-08-25T07:13:38;4.63;;;1.77;;
25657;SDS011;13517;59.320;18.042;2022-08-25T07:16:04;6.90;;;2.08;;
25657;SDS011;13517;59.320;18.042;2022-08-25T07:18:30;10.38;;;3.30;;
25657;SDS011;13517;59.320;18.042;2022-08-25T07:20:56;4.28;;;1.75;;
25657;SDS011;13517;59.320;18.042;2022-08-25T07:23:22;4.07;;;1.50;;
25657;SDS011;13517;59.320;18.042;2022-08-25T07:25:48;3.85;;;1.67;;
25657;SDS011;13517;59.320;18.042;2022-08-25T07:28:15;6.45;;;1.70;;
25657;SDS011;13517;59.320;18.042;2022-08-25T07:30:41;3.10;;;1.60;;
25657;SDS011;13517;59.320;18.042;2022-08-25T07:33:06;5.82;;;1.50;;
25657;SDS011;13517;59.320;18.042;2022-08-25T07:35:32;3.38;;;1.83;;
25657;SDS011;13517;59.320;18.042;2022-08-25T07:37:58;1.48;;;1.38;;
25657;SDS011;13517;59.320;18.042;2022-08-25T07:40:28;2.70;;;1.30;;
25657;SDS011;13517;59.320;18.042;2022-08-25T07:42:58;8.40;;;1.98;;
25657;SDS011;13517;59.320;18.042;2022-08-25T07:45:27;2.58;;;1.40;;
25657;SDS011;13517;59.320;18.042;2022-08-25T07:47:55;3.78;;;1.50;;
25657;SDS011;13517;59.320;18.042;2022-08-25T07:50:23;7.78;;;1.77;;
25657;SDS011;13517;59.320;18.042;2022-08-25T07:52:48;3.95;;;1.63;;
25657;SDS011;13517;59.320;18.042;2022-08-25T07:55:14;3.90;;;1.30;;
25657;SDS011;13517;59.320;18.042;2022-08-25T07:57:39;6.75;;;1.30;;
25657;SDS011;13517;59.320;18.042;2022-08-25T08:00:06;3.20;;;1.33;;
25657;SDS011;13517;59.320;18.042;2022-08-25T08:02:33;2.58;;;1.23;;
25657;SDS011;13517;59.320;18.042;2022-08-25T08:04:59;6.28;;;1.17;;
25657;SDS011;13517;59.320;18.042;2022-08-25T08:07:24;1.52;;;1.00;;
25657;SDS011;13517;59.320;18.042;2022-08-25T08:09:51;1.75;;;1.02;;
25657;SDS011;13517;59.320;18.042;2022-08-25T08:12:17;3.22;;;1.30;;
25657;SDS011;13517;59.320;18.042;2022-08-25T08:14:43;2.47;;;1.10;;
25657;SDS011;13517;59.320;18.042;2022-08-25T08:17:09;4.70;;;1.10;;
25657;SDS011;13517;59.320;18.042;2022-08-25T08:19:36;2.03;;;0.95;;
25657;SDS011;13517;59.320;18.042;2022-08-25T08:22:02;2.50;;;1.25;;
25657;SDS011;13517;59.320;18.042;2022-08-25T08:24:29;2.15;;;1.10;;
25657;SDS011;13517;59.320;18.042;2022-08-25T08:26:57;3.47;;;1.40;;
25657;SDS011;13517;59.320;18.042;2022-08-25T08:29:22;5.28;;;1.20;;
25657;SDS011;13517;59.320;18.042;2022-08-25T08:31:48;5.63;;;1.10;;
25657;SDS011;13517;59.320;18.042;2022-08-25T08:34:14;3.45;;;1.30;;
25657;SDS011;13517;59.320;18.042;2022-08-25T08:36:40;6.03;;;1.30;;
25657;SDS011;13517;59.320;18.042;2022-08-25T08:39:06;1.20;;;1.00;;
25657;SDS011;13517;59.320;18.042;2022-08-25T08:44:40;2.15;;;1.30;;
25657;SDS011;13517;59.320;18.042;2022-08-25T08:47:49;3.28;;;1.27;;
25657;SDS011;13517;59.320;18.042;2022-08-25T08:52:55;1.52;;;1.20;;
25657;SDS011;13517;59.320;18.042;2022-08-25T08:57:54;1.83;;;1.00;;
25657;SDS011;13517;59.320;18.042;2022-08-25T09:00:23;1.20;;;0.90;;
25657;SDS011;13517;59.320;18.042;2022-08-25T09:05:21;4.30;;;1.23;;
25657;SDS011;13517;59.320;18.042;2022-08-25T09:07:56;5.32;;;1.35;;
25657;SDS011;13517;59.320;18.042;2022-08-25T09:10:25;1.92;;;0.93;;
25657;SDS011;13517;59.320;18.042;2022-08-25T09:13:08;3.60;;;1.10;;
25657;SDS011;13517;59.320;18.042;2022-08-25T09:18:41;1.27;;;1.17;;
25657;SDS011;13517;59.320;18.042;2022-08-25T09:27:29;1.38;;;0.90;;
25657;SDS011;13517;59.320;18.042;2022-08-25T09:32:29;3.15;;;1.00;;
25657;SDS011;13517;59.320;18.042;2022-08-25T09:34:59;1.48;;;0.80;;
25657;SDS011;13517;59.320;18.042;2022-08-25T09:37:26;2.45;;;0.80;;
25657;SDS011;13517;59.320;18.042;2022-08-25T09:39:51;2.90;;;0.90;;
25657;SDS011;13517;59.320;18.042;2022-08-25T09:42:18;1.77;;;0.70;;
25657;SDS011;13517;59.320;18.042;2022-08-25T09:44:45;4.72;;;1.33;;
25657;SDS011;13517;59.320;18.042;2022-08-25T09:49:58;1.17;;;0.70;;
25657;SDS011;13517;59.320;18.042;2022-08-25T09:54:57;0.93;;;0.70;;
25657;SDS011;13517;59.320;18.042;2022-08-25T09:57:26;1.20;;;0.98;;
25657;SDS011;13517;59.320;18.042;2022-08-25T09:59:53;2.65;;;0.75;;
25657;SDS011;13517;59.320;18.042;2022-08-25T10:02:26;1.70;;;0.90;;
25657;SDS011;13517;59.320;18.042;2022-08-25T10:04:53;1.17;;;0.80;;
25657;SDS011;13517;59.320;18.042;2022-08-25T10:07:28;1.10;;;0.60;;
25657;SDS011;13517;59.320;18.042;2022-08-25T10:10:00;3.58;;;0.85;;
25657;SDS011;13517;59.320;18.042;2022-08-25T10:12:49;2.45;;;0.80;;
25657;SDS011;13517;59.320;18.042;2022-08-25T10:15:15;2.30;;;0.77;;
25657;SDS011;13517;59.320;18.042;2022-08-25T10:17:45;0.93;;;0.80;;
25657;SDS011;13517;59.320;18.042;2022-08-25T10:22:43;3.65;;;1.10;;
25657;SDS011;13517;59.320;18.042;2022-08-25T10:25:10;2.30;;;0.90;;
25657;SDS011;13517;59.320;18.042;2022-08-25T10:27:43;5.13;;;1.40;;
25657;SDS011;13517;59.320;18.042;2022-08-25T10:36:00;1.80;;;1.00;;
25657;SDS011;13517;59.320;18.042;2022-08-25T10:49:46;1.35;;;1.13;;
25657;SDS011;13517;59.320;18.042;2022-08-25T10:52:22;2.28;;;1.10;;
25657;SDS011;13517;59.320;18.042;2022-08-25T10:55:23;3.22;;;1.15;;
25657;SDS011;13517;59.320;18.042;2022-08-25T11:00:51;2.22;;;1.13;;
25657;SDS011;13517;59.320;18.042;2022-08-25T11:06:09;1.98;;;1.00;;
25657;SDS011;13517;59.320;18.042;2022-08-25T11:08:43;1.77;;;1.10;;
25657;SDS011;13517;59.320;18.042;2022-08-25T11:11:22;5.53;;;1.10;;
25657;SDS011;13517;59.320;18.042;2022-08-25T11:13:52;3.40;;;1.10;;
25657;SDS011;13517;59.320;18.042;2022-08-25T11:19:10;2.78;;;1.13;;
25657;SDS011;13517;59.320;18.042;2022-08-25T11:21:51;2.10;;;1.17;;
25657;SDS011;13517;59.320;18.042;2022-08-25T11:27:17;3.55;;;1.20;;
25657;SDS011;13517;59.320;18.042;2022-08-25T11:29:57;1.38;;;1.10;;
25657;SDS011;13517;59.320;18.042;2022-08-25T11:32:28;4.57;;;1.10;;
25657;SDS011;13517;59.320;18.042;2022-08-25T11:34:59;3.25;;;1.20;;
25657;SDS011;13517;59.320;18.042;2022-08-25T11:37:30;1.30;;;1.00;;
25657;SDS011;13517;59.320;18.042;2022-08-25T11:42:51;2.83;;;0.90;;
25657;SDS011;13517;59.320;18.042;2022-08-25T11:53:29;3.15;;;1.00;;
25657;SDS011;13517;59.320;18.042;2022-08-25T11:56:01;3.10;;;1.25;;
25657;SDS011;13517;59.320;18.042;2022-08-25T11:58:47;1.20;;;1.10;;
25657;SDS011;13517;59.320;18.042;2022-08-25T12:04:11;2.70;;;1.02;;
25657;SDS011;13517;59.320;18.042;2022-08-25T12:23:27;2.03;;;0.93;;
25657;SDS011;13517;59.320;18.042;2022-08-25T12:25:53;2.08;;;1.30;;
25657;SDS011;13517;59.320;18.042;2022-08-25T12:28:26;4.68;;;1.25;;
25657;SDS011;13517;59.320;18.042;2022-08-25T12:30:58;1.77;;;1.08;;
25657;SDS011;13517;59.320;18.042;2022-08-25T12:36:36;2.92;;;1.30;;
25657;SDS011;13517;59.320;18.042;2022-08-25T12:39:35;4.88;;;1.40;;
25657;SDS011;13517;59.320;18.042;2022-08-25T12:41:56;3.10;;;1.30;;
25657;SDS011;13517;59.320;18.042;2022-08-25T12:49:35;7.50;;;1.55;;
25657;SDS011;13517;59.320;18.042;2022-08-25T12:52:05;3.17;;;1.25;;
25657;SDS011;13517;59.320;18.042;2022-08-25T12:59:53;3.88;;;1.13;;
25657;SDS011;13517;59.320;18.042;2022-08-25T13:05:15;3.90;;;1.13;;
25657;SDS011;13517;59.320;18.042;2022-08-25T13:10:32;4.00;;;1.30;;
25657;SDS011;13517;59.320;18.042;2022-08-25T13:13:05;4.95;;;1.33;;
25657;SDS011;13517;59.320;18.042;2022-08-25T13:15:39;2.22;;;0.95;;
25657;SDS011;13517;59.320;18.042;2022-08-25T13:18:15;1.70;;;1.00;;
25657;SDS011;13517;59.320;18.042;2022-08-25T13:20:41;5.00;;;1.25;;
25657;SDS011;13517;59.320;18.042;2022-08-25T13:23:07;2.38;;;1.10;;
25657;SDS011;13517;59.320;18.042;2022-08-25T13:25:32;1.88;;;1.20;;
25657;SDS011;13517;59.320;18.042;2022-08-25T13:28:02;2.47;;;1.27;;
25657;SDS011;13517;59.320;18.042;2022-08-25T13:30:34;4.07;;;1.13;;
25657;SDS011;13517;59.320;18.042;2022-08-25T13:33:17;1.30;;;1.20;;
25657;SDS011;13517;59.320;18.042;2022-08-25T13:35:51;1.33;;;0.90;;
25657;SDS011;13517;59.320;18.042;2022-08-25T13:38:37;4.25;;;1.55;;
25657;SDS011;13517;59.320;18.042;2022-08-25T13:41:03;2.83;;;1.10;;
25657;SDS011;13517;59.320;18.042;2022-08-25T13:43:29;2.92;;;1.17;;
25657;SDS011;13517;59.320;18.042;2022-08-25T13:45:55;5.38;;;1.00;;
25657;SDS011;13517;59.320;18.042;2022-08-25T13:48:40;2.40;;;1.35;;
25657;SDS011;13517;59.320;18.042;2022-08-25T13:51:15;3.60;;;1.10;;
25657;SDS011;13517;59.320;18.042;2022-08-25T13:53:52;5.32;;;1.10;;
25657;SDS011;13517;59.320;18.042;2022-08-25T13:56:24;1.60;;;1.00;;
25657;SDS011;13517;59.320;18.042;2022-08-25T13:59:02;4.32;;;0.90;;
25657;SDS011;13517;59.320;18.042;2022-08-25T14:01:29;3.22;;;1.15;;
25657;SDS011;13517;59.320;18.042;2022-08-25T14:06:46;1.45;;;0.90;;
25657;SDS011;13517;59.320;18.042;2022-08-25T14:09:14;3.88;;;1.23;;
25657;SDS011;13517;59.320;18.042;2022-08-25T14:11:46;3.63;;;0.88;;
25657;SDS011;13517;59.320;18.042;2022-08-25T14:16:48;1.30;;;1.13;;
25657;SDS011;13517;59.320;18.042;2022-08-25T14:19:17;1.50;;;1.00;;
25657;SDS011;13517;59.320;18.042;2022-08-25T14:21:47;4.97;;;1.30;;
25657;SDS011;13517;59.320;18.042;2022-08-25T14:24:16;2.38;;;1.15;;
25657;SDS011;13517;59.320;18.042;2022-08-25T14:26:43;2.20;;;1.27;;
25657;SDS011;13517;59.320;18.042;2022-08-25T14:29:10;2.55;;;1.00;;
25657;SDS011;13517;59.320;18.042;2022-08-25T14:31:36;1.92;;;1.10;;
25657;SDS011;13517;59.320;18.042;2022-08-25T14:34:18;2.05;;;1.00;;
25657;SDS011;13517;59.320;18.042;2022-08-25T14:36:45;2.15;;;1.20;;
25657;SDS011;13517;59.320;18.042;2022-08-25T14:39:12;2.75;;;1.00;;
25657;SDS011;13517;59.320;18.042;2022-08-25T14:41:38;2.30;;;1.10;;
25657;SDS011;13517;59.320;18.042;2022-08-25T14:44:05;2.20;;;1.10;;
25657;SDS011;13517;59.320;18.042;2022-08-25T14:46:32;1.33;;;1.13;;
25657;SDS011;13517;59.320;18.042;2022-08-25T14:49:02;1.63;;;1.13;;
25657;SDS011;13517;59.320;18.042;2022-08-25T14:51:30;5.28;;;1.40;;
25657;SDS011;13517;59.320;18.042;2022-08-25T14:54:08;2.20;;;0.95;;
25657;SDS011;13517;59.320;18.042;2022-08-25T14:56:38;1.83;;;1.10;;
25657;SDS011;13517;59.320;18.042;2022-08-25T14:59:04;2.05;;;1.05;;
25657;SDS011;13517;59.320;18.042;2022-08-25T15:01:30;2.13;;;0.90;;
25657;SDS011;13517;59.320;18.042;2022-08-25T15:04:05;2.60;;;1.27;;
25657;SDS011;13517;59.320;18.042;2022-08-25T15:06:35;2.50;;;1.30;;
25657;SDS011;13517;59.320;18.042;2022-08-25T15:09:01;2.40;;;1.45;;
25657;SDS011;13517;59.320;18.042;2022-08-25T15:11:41;2.45;;;1.10;;
25657;SDS011;13517;59.320;18.042;2022-08-25T15:14:14;2.50;;;1.08;;
25657;SDS011;13517;59.320;18.042;2022-08-25T15:16:41;1.95;;;1.30;;
25657;SDS011;13517;59.320;18.042;2022-08-25T15:19:10;3.20;;;1.10;;
25657;SDS011;13517;59.320;18.042;2022-08-25T15:21:38;9.35;;;1.67;;
25657;SDS011;13517;59.320;18.042;2022-08-25T15:24:05;8.10;;;4.10;;
25657;SDS011;13517;59.320;18.042;2022-08-25T15:26:34;4.93;;;1.40;;
25657;SDS011;13517;59.320;18.042;2022-08-25T15:29:05;2.95;;;1.92;;
25657;SDS011;13517;59.320;18.042;2022-08-25T15:31:30;3.55;;;1.65;;
25657;SDS011;13517;59.320;18.042;2022-08-25T15:33:56;5.07;;;1.48;;
25657;SDS011;13517;59.320;18.042;2022-08-25T15:36:22;5.55;;;1.90;;
25657;SDS011;13517;59.320;18.042;2022-08-25T15:38:48;2.17;;;1.27;;
25657;SDS011;13517;59.320;18.042;2022-08-25T15:41:14;3.13;;;1.38;;
25657;SDS011;13517;59.320;18.042;2022-08-25T15:43:39;1.58;;;1.30;;
25657;SDS011;13517;59.320;18.042;2022-08-25T15:46:07;2.83;;;1.65;;
25657;SDS011;13517;59.320;18.042;2022-08-25T15:48:33;4.65;;;1.58;;
25657;SDS011;13517;59.320;18.042;2022-08-25T15:51:00;2.95;;;1.50;;
25657;SDS011;13517;59.320;18.042;2022-08-25T15:53:26;2.58;;;1.25;;
25657;SDS011;13517;59.320;18.042;2022-08-25T15:55:53;3.30;;;1.30;;
25657;SDS011;13517;59.320;18.042;2022-08-25T15:58:20;3.10;;;1.50;;
25657;SDS011;13517;59.320;18.042;2022-08-25T16:00:46;2.03;;;1.30;;
25657;SDS011;13517;59.320;18.042;2022-08-25T16:03:12;3.05;;;1.30;;
25657;SDS011;13517;59.320;18.042;2022-08-25T16:05:38;3.33;;;1.10;;
25657;SDS011;13517;59.320;18.042;2022-08-25T16:08:04;3.88;;;1.20;;
25657;SDS011;13517;59.320;18.042;2022-08-25T16:10:37;2.67;;;1.38;;
25657;SDS011;13517;59.320;18.042;2022-08-25T16:13:04;1.98;;;1.10;;
25657;SDS011;13517;59.320;18.042;2022-08-25T16:15:30;3.40;;;1.23;;
25657;SDS011;13517;59.320;18.042;2022-08-25T16:17:58;1.55;;;1.13;;
25657;SDS011;13517;59.320;18.042;2022-08-25T16:20:25;6.55;;;1.50;;
25657;SDS011;13517;59.320;18.042;2022-08-25T16:22:51;3.55;;;1.23;;
25657;SDS011;13517;59.320;18.042;2022-08-25T16:25:17;3.45;;;1.40;;
25657;SDS011;13517;59.320;18.042;2022-08-25T16:27:43;13.55;;;2.08;;
25657;SDS011;13517;59.320;18.042;2022-08-25T16:30:09;1.85;;;1.60;;
25657;SDS011;13517;59.320;18.042;2022-08-25T16:32:36;2.97;;;1.65;;
25657;SDS011;13517;59.320;18.042;2022-08-25T16:35:02;2.22;;;1.48;;
25657;SDS011;13517;59.320;18.042;2022-08-25T16:37:31;4.25;;;1.20;;
25657;SDS011;13517;59.320;18.042;2022-08-25T16:39:57;3.28;;;1.35;;